首页
METAR-TAF:

METAR-TAF

机场 :

El Dorado, 阿肯色州, 美国

纬度: 33-13-15N, 经度: 092-48-48W, 海拔: 84米

当前天气观测

该预报发布于34分钟前的15:53 UTC
风速9节,风向东南
温度 21°C
湿度 49%
气压 1019 hPa
能見度: 16.1公里
天空无云

METAR: KELD 021553Z AUTO 13009KT 10SM CLR 21/10 A3008 RMK AO2 SLP184 T02110100

时间: 11:27 (16:27 UTC)

预报

该预报发布于5小时和7分钟前的11:20 UTC
预报有效从02日的 12点(UTC)到 03日的 12点(UTC)
风速节,风向
能見度: 10公里
散云层高于25000英尺
从 02日的 1700点(UTC)
风速9节,风向南转南东
能見度: 10公里
多云层高于25000英尺
从 03日的 0200点(UTC)
风速4节,风向多变
能見度: 10公里
多云层高于10000英尺

TAF: KELD 021120Z 0212/0312 00000KT P6SM SCT250 FM021700 15009KT P6SM BKN250 FM030200 VRB04KT P6SM BKN100

超过4000个机场的气象观测和天气预报(METAR&TAF报告)。

可查询的气象台以黄色和红色小点在地图上表示。

将鼠标移到小点上方,可查看气象台名称。

然后点击查看天气观测和预报。

如需切换地图:点击带黑十字的绿色按钮放大地图;点击带横线的绿色按钮缩小地图;或者点击绿色箭头查看邻近地区的地图。


METAR-TAF: